Tiempo atmosférico en la estación meteorológica de Irún, Gipuzkoa (120 m.)



Fecha
DESCASC
Temp. máxima en grados centígrados (hora)
DESCASC
Temp. mínima en grados centígrados (hora)
DESCASC
Temp. media en grados centígrados
DESCASC
Racha de viento máxima en m/sg (hora)
DESCASC
Velocidad máxima media en intervalos de 10 minutos(hora)
DESCASC
Precipitaciones diarias en mm
DESCASC
Precipitaciones de 00:00 a 06:00 en mm
DESCASC
Precipitaciones de 06:00 a 12:00 en mm
DESCASC
Precipitaciones de 12:00 a 18:00 en mm
DESCASC
Precipitaciones de 18:00 a 24:00 en mm
DESCASC
17-02-2019 22.7 (15:20) 14.6 (23:10) 18.7 12.78 (09:20) 5.56 (09:20) 0 0 0 0 0
16-02-2019 21.1 (14:20) 11.1 (08:20) 16.1 11.39 (12:40) 4.17 (12:40) 0 0 0 0 0
15-02-2019 22.7 (14:10) 13.4 (22:40) 18.1 5 (15:30) 2.22 (15:30) 0 0 0 0 0
14-02-2019 20.8 (15:20) 11.5 (00:00) 16.1 9.72 (14:50) 4.17 (13:40) 0 0 0 0 0
13-02-2019 14.1 (15:30) 3.5 (00:00) 8.8 2.5 (14:20) 1.67 (14:20) 0 0 0 0 0
12-02-2019 14.3 (15:30) 4.8 (00:00) 9.6 5.56 (12:10) 1.94 (11:50) 0 0 0 0 0
11-02-2019 11.2 (15:30) 8 (00:00) 9.6 15.83 (02:20) 5.83 (02:20) 6.2 1.6 3.4 1.2 0
10-02-2019 15.2 (00:10) 9.2 (00:00) 12.2 16.39 (11:20) 7.22 (10:20) 6.8 0 1.6 5.2 0
09-02-2019 16.8 (17:20) 9.7 (00:00) 13.2 8.61 (18:00) 3.33 (19:30) 0 0 0 0 0
08-02-2019 15.9 (13:50) 6 (00:00) 10.9 5.28 (17:00) 3.06 (17:10) 0 0 0 0 0
07-02-2019 11.8 (11:10) 7.8 (00:00) 9.8 8.89 (00:20) 4.17 (01:00) 0.2 0 0 0.2 0
06-02-2019 16.3 (13:50) 9.8 (00:00) 13 8.89 (23:40) 5 (23:40) 0.4 0.2 0.2 0 0
05-02-2019 11.4 (10:20) 9.6 (00:00) 10.5 8.61 (02:30) 4.72 (03:10) 4.6 0.4 0.2 1.2 2.8
04-02-2019 11.8 (15:10) 1.9 (00:00) 6.9 10.28 (20:20) 4.72 (21:30) 0.8 0 0 0.4 0.4
03-02-2019 8.3 (14:50) 1.4 (00:00) 4.9 10.83 (06:20) 3.89 (06:20) 10 6 2.4 0 1.6
02-02-2019 8.5 (15:20) 5.1 (00:00) 6.8 18.89 (07:50) 10.83 (07:50) 19.2 10.6 5.8 1.2 1.6
01-02-2019 12.9 (15:10) 5.6 (00:00) 9.2 13.33 (10:40) 5.28 (09:10) 8 1.6 0 1.8 4.6
31-01-2019 16.8 (15:50) 8 (00:00) 12.4 11.67 (18:50) 5 (00:20) 43.8 4.6 10.4 1.4 27.4
30-01-2019 10.4 (15:20) 4.6 (00:00) 7.5 19.44 (00:30) 7.5 (00:50) 13.2 0.8 9.6 1 1.8
29-01-2019 10.8 (15:20) 6.3 (00:00) 8.6 24.17 (17:20) 9.72 (19:10) 13.6 2.2 2 6 3.4
28-01-2019 10.9 (13:30) 7 (00:00) 8.9 20 (08:40) 9.17 (14:50) 17.6 6.2 6.2 4 1.2
27-01-2019 9.7 (13:20) 6.9 (00:00) 8.3 20 (14:30) 10 (15:30) 18 2.8 7.8 3.8 3.6
26-01-2019 12.9 (15:40) 8.3 (00:00) 10.6 7.5 (22:00) 3.89 (23:30) 2.6 1.4 1.2 0 0
25-01-2019 10.7 (15:10) 5.1 (00:00) 7.9 14.17 (09:20) 5.83 (09:30) 25.6 1.6 11.8 6.8 5.4
24-01-2019 8.1 (00:20) 3.9 (00:00) 6 13.06 (04:00) 6.67 (00:50) 2.2 1.6 0 0 0.6
23-01-2019 11 (07:00) 6.4 (00:00) 8.7 30.28 (07:20) 9.17 (06:40) 36.6 15 11 5.2 5.4
22-01-2019 8 (16:10) 5.4 (00:00) 6.7 14.17 (16:20) 6.67 (16:20) 37.4 0 4.8 20.4 12.2
21-01-2019 7.8 (14:30) 5.6 (00:00) 6.7 11.11 (09:10) 4.44 (09:10) 2.2 1.8 0.4 0 0
20-01-2019 10.2 (14:40) 7 (00:00) 8.6 11.39 (10:00) 5.56 (10:50) 17.2 0 5 7.4 4.8
19-01-2019 12 (15:20) 6.4 (00:00) 9.2 7.78 (04:00) 4.44 (04:00) 2.4 2 0.4 0 0

Gráficas

Temp. máximas Temp. mínimas Temp. medias Precipitaciones Rachas de viento máximas Velocidades máximas media en intervalos de 10 minutos

Datos horarios

Fecha y hora oficial Temperatura (ºC) Velocidad del viento (km/h) Dirección del viento Racha (km/h) Dirección de racha Precipitación (mm) Presión (hPa) Tendencia (hPa) Humedad (%)
2019-02-17 23:00:00 14.7 6 Noroeste 11 Sur 0 -- -- 24
2019-02-17 22:00:00 16.6 4 Sudeste 26 Sudeste 0 -- -- 20
2019-02-17 21:00:00 16.6 5 Sur 25 Sur 0 -- -- 19
2019-02-17 20:00:00 16.6 2 Noroeste 7 Norte 0 -- -- 21
2019-02-17 19:00:00 18.4 0 Calma 17 Sudoeste 0 -- -- 19
2019-02-17 18:00:00 19.8 9 Sudeste 27 Sudoeste 0 -- -- 20
2019-02-17 17:00:00 21 13 Sudeste 24 Sudeste 0 -- -- 18
2019-02-17 16:00:00 22.3 6 Sudeste 22 Sudeste 0 -- -- 19
2019-02-17 15:00:00 22.4 5 Sur 12 Norte 0 -- -- 18
2019-02-17 14:00:00 20.6 7 Norte 15 Norte 0 -- -- 20
2019-02-17 13:00:00 20.1 6 Nordeste 17 Norte 0 -- -- 21
2019-02-17 12:00:00 19.8 9 Norte 27 Sur 0 -- -- 19
2019-02-17 11:00:00 19.2 14 Sur 43 Este 0 -- -- 15
2019-02-17 10:00:00 17.8 15 Sur 46 Sur 0 -- -- 16
2019-02-17 09:00:00 16.6 8 Sudoeste 26 Oeste 0 -- -- 16
2019-02-17 08:00:00 15.4 8 Oeste 33 Sur 0 -- -- 18
2019-02-17 07:00:00 17 16 Sur 40 Sur 0 -- -- 15
2019-02-17 06:00:00 16.9 12 Sudeste 28 Sudeste 0 -- -- 15
2019-02-17 05:00:00 17 14 Sur 30 Sur 0 -- -- 16
2019-02-17 04:00:00 16.9 10 Sudeste 31 Sudeste 0 -- -- 18
2019-02-17 03:00:00 17.1 7 Sur 39 Sur 0 -- -- 19
2019-02-17 02:00:00 16.8 9 Sur 26 Oeste 0 -- -- 22
2019-02-17 01:00:00 15.6 8 Oeste 15 Oeste 0 -- -- 23
2019-02-17 00:00:00 15.5 3 Noroeste 13 Sudoeste 0 -- -- 21
2019-02-16 23:00:00 15.8 5 Oeste 14 Oeste 0 -- -- 20
2019-02-16 22:00:00 15.7 9 Norte 24 Este 0 -- -- 21
2019-02-16 21:00:00 16.9 5 Sudeste 20 Sur 0 -- -- 20
2019-02-16 20:00:00 17.3 5 Sur 22 Sudeste 0 -- -- 21
2019-02-16 19:00:00 17.7 4 Noroeste 30 Sur 0 -- -- 23
2019-02-16 18:00:00 18.9 5 Sudeste 26 Sudoeste 0 -- -- 23
2019-02-16 17:00:00 19.7 9 Sudeste 26 Sudeste 0 -- -- 25
2019-02-16 16:00:00 20 14 Sur 34 Sur 0 -- -- 27
2019-02-16 15:00:00 20.4 14 Sudeste 32 Sur 0 -- -- 25
2019-02-16 14:00:00 20.8 9 Sudeste 35 Sudeste 0 -- -- 26
2019-02-16 13:00:00 19.4 14 Sudeste 41 Sudoeste 0 -- -- 26
2019-02-16 12:00:00 16.7 5 Oeste 10 Sudoeste 0 -- -- 37
2019-02-16 11:00:00 14 5 Oeste 10 Oeste 0 -- -- 50
2019-02-16 10:00:00 13.3 3 Este 14 Este 0 -- -- 46
2019-02-16 09:00:00 12.1 8 Sudeste 19 Sudeste 0 -- -- 47
2019-02-16 08:00:00 11.3 3 Sur 10 Sudoeste 0 -- -- 45
2019-02-16 07:00:00 11.5 3 Sudeste 8 Este 0 -- -- 47
2019-02-16 06:00:00 11.7 2 Sudeste 6 Este 0 -- -- 47
2019-02-16 05:00:00 12.7 5 Norte 8 Norte 0 -- -- 44
2019-02-16 04:00:00 12.9 3 Norte 6 Este 0 -- -- 43
2019-02-16 03:00:00 12.2 0 Calma 6 Noroeste 0 -- -- 42
2019-02-16 02:00:00 12.8 0 Calma 5 Oeste 0 -- -- 40
2019-02-16 01:00:00 13.4 0 Calma 6 Sudeste 0 -- -- 37
2019-02-16 00:00:00 14.2 3 Este 5 Este 0 -- -- 33
2019-02-15 23:00:00 13.7 3 Oeste 6 Sudoeste 0 -- -- 30
2019-02-15 22:00:00 14.1 3 Sudeste 6 Oeste 0 -- -- 25
2019-02-15 21:00:00 14.6 3 Sudoeste 7 Oeste 0 -- -- 24
2019-02-15 20:00:00 15.8 3 Sur 6 Oeste 0 -- -- 21
2019-02-15 19:00:00 16.4 0 Calma 5 Oeste 0 -- -- 26
2019-02-15 18:00:00 18 0 Calma 5 Nordeste 0 -- -- 23
2019-02-15 17:00:00 19.6 3 Norte 8 Norte 0 -- -- 22
2019-02-15 16:00:00 20.9 3 Nordeste 18 Noroeste 0 -- -- 25
2019-02-15 15:00:00 21.6 6 Norte 13 Norte 0 -- -- 21
2019-02-15 14:00:00 22.4 3 Este 8 Este 0 -- -- 20
2019-02-15 13:00:00 21.3 3 Este 10 Este 0 -- -- 22
2019-02-15 12:00:00 19.3 4 Nordeste 8 Noroeste 0 -- -- 21
2019-02-15 11:00:00 17.2 6 Noroeste 9 Noroeste 0 -- -- 24
2019-02-15 10:00:00 15.6 3 Norte 9 Norte 0 -- -- 24
2019-02-15 09:00:00 14.4 3 Norte 9 Norte 0 -- -- 22
2019-02-15 08:00:00 13.9 6 Norte 10 Norte 0 -- -- 23
2019-02-15 07:00:00 14.6 4 Norte 9 Este 0 -- -- 22
2019-02-15 06:00:00 14.9 3 Norte 8 Norte 0 -- -- 20
2019-02-15 05:00:00 14.6 5 Norte 11 Norte 0 -- -- 23
2019-02-15 04:00:00 14.2 4 Norte 8 Noroeste 0 -- -- 24
2019-02-15 03:00:00 14.5 5 Sur 14 Sur 0 -- -- 22
2019-02-15 02:00:00 14.2 3 Norte 10 Norte 0 -- -- 23
2019-02-15 01:00:00 14.7 3 Nordeste 10 Sur 0 -- -- 22
2019-02-15 00:00:00 14.6 2 Noroeste 18 Sur 0 -- -- 22
2019-02-14 23:00:00 15.9 12 Sur 23 Sur 0 -- -- 19
2019-02-14 22:00:00 14.2 2 Este 7 Sudeste 0 -- -- 28
2019-02-14 21:00:00 14.2 5 Oeste 8 Oeste 0 -- -- 29
2019-02-14 20:00:00 15.1 4 Este 11 Sudeste 0 -- -- 29
2019-02-14 19:00:00 16.3 4 Sudeste 10 Nordeste 0 -- -- 27
2019-02-14 18:00:00 18.6 3 Nordeste 26 Sudoeste 0 -- -- 23
2019-02-14 17:00:00 19.9 3 Nordeste 18 Sur 0 -- -- 25
2019-02-14 16:00:00 20.8 4 Sudeste 14 Sur 0 -- -- 26
2019-02-14 15:00:00 20.1 6 Nordeste 35 Sudoeste 0 -- -- 26
2019-02-14 14:00:00 20 13 Sudeste 31 Sudeste 0 -- -- 24
2019-02-14 13:00:00 20.2 7 Sudeste 18 Sur 0 -- -- 28
2019-02-14 12:00:00 18.3 3 Sudoeste 10 Oeste 0 -- -- 31
2019-02-14 11:00:00 16.6 4 Oeste 23 Oeste 0 -- -- 34
2019-02-14 10:00:00 14.8 6 Sudeste 15 Sudoeste 0 -- -- 33
2019-02-14 09:00:00 13.1 5 Noroeste 10 Norte 0 -- -- 37
2019-02-14 08:00:00 13 4 Sudeste 15 Sudeste 0 -- -- 35
2019-02-14 07:00:00 13.1 7 Sudeste 20 Sur 0 -- -- 34
2019-02-14 06:00:00 12.5 4 Oeste 7 Noroeste 0 -- -- 37
2019-02-14 05:00:00 12.5 4 Oeste 7 Norte 0 -- -- 42
2019-02-14 04:00:00 12.9 4 Noroeste 8 Noroeste 0 -- -- 42
2019-02-14 03:00:00 12.6 3 Noroeste 5 Nordeste 0 -- -- 46
2019-02-14 02:00:00 12.4 3 Noroeste 5 Oeste 0 -- -- 51
2019-02-14 01:00:00 11.7 5 Oeste 8 Oeste 0 -- -- 54
2019-02-14 00:00:00 12.1 2 Sudeste 5 Sur 0 -- -- 52
2019-02-13 23:00:00 11.9 2 Sur 4 Oeste 0 -- -- 55
2019-02-13 22:00:00 11.7 2 Norte 4 Noroeste 0 -- -- 60
2019-02-13 21:00:00 11.5 0 Calma 6 Oeste 0 -- -- 62
2019-02-13 20:00:00 11.4 0 Calma 3 Oeste 0 -- -- 61
2019-02-13 19:00:00 12 2 Oeste 5 Noroeste 0 -- -- 57
2019-02-13 18:00:00 13.5 0 Calma 5 Norte 0 -- -- 56
2019-02-13 17:00:00 14 3 Norte 8 Norte 0 -- -- 56
2019-02-13 16:00:00 14 3 Norte 8 Norte 0 -- -- 54
2019-02-13 15:00:00 13.5 3 Norte 9 Nordeste 0 -- -- 56
2019-02-13 14:00:00 13.3 4 Norte 8 Nordeste 0 -- -- 62
2019-02-13 13:00:00 12.3 3 Norte 7 Nordeste 0 -- -- 66
2019-02-13 12:00:00 10.3 2 Norte 5 Norte 0 -- -- 69
2019-02-13 11:00:00 8.3 2 Norte 5 Oeste 0 -- -- 81
2019-02-13 10:00:00 5.5 0 Calma 4 Oeste 0 -- -- 90
2019-02-13 09:00:00 4.1 0 Calma 4 Oeste 0 -- -- 93
2019-02-13 08:00:00 3.5 2 Oeste 5 Oeste 0 -- -- 92
2019-02-13 07:00:00 4.2 0 Calma 3 Oeste 0 -- -- 91
2019-02-13 06:00:00 4.6 0 Calma 4 Este 0 -- -- 90
2019-02-13 05:00:00 4.8 0 Calma 3 Oeste 0 -- -- 90
2019-02-13 04:00:00 4.8 0 Calma 0 Calma 0 -- -- 90
2019-02-13 03:00:00 5.1 0 Calma 2 Nordeste 0 -- -- 88
2019-02-13 02:00:00 5.3 0 Calma 4 Norte 0 -- -- 87
2019-02-13 01:00:00 5.6 0 Calma 5 Oeste 0 -- -- 87
2019-02-13 00:00:00 5.9 0 Calma 7 Oeste 0 -- -- 84
2019-02-12 23:00:00 6.7 5 Oeste 8 Oeste 0 -- -- 81
2019-02-12 22:00:00 7 3 Oeste 5 Oeste 0 -- -- 81
2019-02-12 21:00:00 7.9 0 Calma 5 Norte 0 -- -- 77
2019-02-12 20:00:00 9.1 2 Nordeste 7 Este 0 -- -- 70
2019-02-12 19:00:00 9.7 4 Este 12 Este 0 -- -- 70
2019-02-12 18:00:00 11.4 5 Este 17 Este 0 -- -- 64
2019-02-12 17:00:00 12.5 6 Este 15 Nordeste 0 -- -- 61
2019-02-12 16:00:00 13.8 7 Este 19 Este 0 -- -- 57
2019-02-12 15:00:00 14 5 Este 18 Este 0 -- -- 59
2019-02-12 14:00:00 13.8 4 Este 14 Nordeste 0 -- -- 60
2019-02-12 13:00:00 12.4 4 Este 20 Nordeste 0 -- -- 69
2019-02-12 12:00:00 11.2 6 Este 19 Nordeste 0 -- -- 69
2019-02-12 11:00:00 8.2 5 Este 12 Este 0 -- -- 88
2019-02-12 10:00:00 5.9 4 Oeste 5 Oeste 0 -- -- 94
2019-02-12 09:00:00 5.1 2 Oeste 5 Oeste 0 -- -- 94
2019-02-12 08:00:00 5.2 0 Calma 6 Oeste 0 -- -- 93
2019-02-12 07:00:00 5.4 4 Oeste 5 Oeste 0 -- -- 92
2019-02-12 06:00:00 6.1 3 Oeste 4 Oeste 0 -- -- 91
2019-02-12 05:00:00 6.6 0 Calma 4 Oeste 0 -- -- 91
2019-02-12 04:00:00 6.9 3 Sudoeste 8 Oeste 0 -- -- 92
2019-02-12 03:00:00 7.2 0 Calma 9 Norte 0 -- -- 92
2019-02-12 02:00:00 7.4 0 Calma 4 Norte 0 -- -- 91
2019-02-12 01:00:00 8 0 Calma 4 Sudoeste 0 -- -- 87
2019-02-12 00:00:00 8.1 4 Oeste 5 Oeste 0 -- -- 86
2019-02-11 23:00:00 8.3 0 Calma 2 Norte 0 -- -- 86
2019-02-11 22:00:00 8.3 0 Calma 5 Oeste 0 -- -- 85
2019-02-11 21:00:00 8.8 4 Oeste 5 Oeste 0 -- -- 82
2019-02-11 20:00:00 8.9 3 Oeste 6 Oeste 0 -- -- 80
2019-02-11 19:00:00 9.3 4 Noroeste 10 Noroeste 0 -- -- 79
2019-02-11 18:00:00 9.7 7 Noroeste 21 Noroeste 0 -- -- 81
2019-02-11 17:00:00 10.3 11 Noroeste 20 Oeste 0 -- -- 78
2019-02-11 16:00:00 10.8 5 Noroeste 16 Oeste 0 -- -- 81
2019-02-11 15:00:00 10.7 5 Sudoeste 16 Noroeste 0.2 -- -- 80
2019-02-11 14:00:00 9.4 7 Noroeste 25 Noroeste 1 -- -- 87
2019-02-11 13:00:00 10.4 10 Noroeste 18 Oeste 0 -- -- 82
2019-02-11 12:00:00 9.8 5 Noroeste 17 Oeste 0.2 -- -- 84
2019-02-11 11:00:00 9.4 9 Oeste 21 Oeste 0 -- -- 84
2019-02-11 10:00:00 8.4 5 Oeste 24 Oeste 1.4 -- -- 89
2019-02-11 09:00:00 8.2 4 Oeste 20 Oeste 1.6 -- -- 88
2019-02-11 08:00:00 8.7 4 Oeste 18 Oeste 0 -- -- 84
2019-02-11 07:00:00 8.7 6 Oeste 22 Noroeste 0.2 -- -- 81
2019-02-11 06:00:00 8.9 4 Noroeste 23 Noroeste 0 -- -- 82
2019-02-11 05:00:00 8.5 8 Noroeste 26 Noroeste 0 -- -- 84
2019-02-11 04:00:00 8.6 10 Noroeste 29 Oeste 0.2 -- -- 84
2019-02-11 03:00:00 8.2 8 Oeste 57 Noroeste 0.4 -- -- 84
2019-02-11 02:00:00 9.2 12 Oeste 44 Noroeste 1 -- -- 79
2019-02-11 01:00:00 9.5 11 Oeste 31 Oeste 0 -- -- 76
2019-02-11 00:00:00 9.4 13 Oeste 31 Sudoeste 0 -- -- 75
2019-02-10 23:00:00 9.6 10 Oeste 36 Oeste 0 -- -- 72
2019-02-10 22:00:00 9.9 10 Oeste 35 Oeste 0 -- -- 71
2019-02-10 21:00:00 9.9 11 Oeste 43 Oeste 0 -- -- 71
2019-02-10 20:00:00 9.7 14 Oeste 35 Sudoeste 0 -- -- 72
2019-02-10 19:00:00 9.6 12 Oeste 33 Oeste 0 -- -- 76
2019-02-10 18:00:00 9.3 9 Oeste 28 Sudoeste 0 -- -- 88
2019-02-10 17:00:00 9.4 14 Sudoeste 38 Oeste 0.8 -- -- 89
2019-02-10 16:00:00 9.3 13 Oeste 37 Oeste 3 -- -- 90
2019-02-10 15:00:00 9.6 14 Oeste 45 Sudoeste 0.4 -- -- 89
2019-02-10 14:00:00 10.1 14 Oeste 43 Oeste 0.6 -- -- 92
2019-02-10 13:00:00 9.9 18 Oeste 45 Noroeste 0.4 -- -- 90
2019-02-10 12:00:00 9.7 13 Oeste 59 Noroeste 1.4 -- -- 90
2019-02-10 11:00:00 14.1 19 Oeste 49 Sudoeste 0 -- -- 71
2019-02-10 10:00:00 14.8 15 Sudoeste 40 Oeste 0 -- -- 58
2019-02-10 09:00:00 13.7 14 Oeste 44 Oeste 0.2 -- -- 63
2019-02-10 08:00:00 13.8 13 Sudoeste 51 Sudoeste 0 -- -- 63
2019-02-10 07:00:00 15.2 18 Sudoeste 39 Oeste 0 -- -- 49
2019-02-10 06:00:00 14.7 14 Sudoeste 38 Oeste 0 -- -- 48
2019-02-10 05:00:00 14.3 11 Sudoeste 32 Oeste 0 -- -- 49
2019-02-10 04:00:00 14.2 9 Sur 43 Sudoeste 0 -- -- 49
2019-02-10 03:00:00 14 8 Sur 28 Sudoeste 0 -- -- 49
2019-02-10 02:00:00 14.5 9 Sur 39 Sur 0 -- -- 52
2019-02-10 01:00:00 14.7 5 Sudoeste 19 Sur 0 -- -- 49
2019-02-10 00:00:00 15.1 8 Sudoeste 26 Oeste 0 -- -- 49
2019-02-09 23:00:00 15.2 4 Sudoeste 15 Sudoeste 0 -- -- 50
2019-02-09 22:00:00 15.6 8 Sudoeste 21 Sudoeste 0 -- -- 47
2019-02-09 21:00:00 15.5 8 Sudoeste 27 Sudoeste 0 -- -- 49
2019-02-09 20:00:00 15.2 7 Sudoeste 23 Sudoeste 0 -- -- 51
2019-02-09 19:00:00 15.2 5 Sudoeste 22 Sur 0 -- -- 53
2019-02-09 18:00:00 16.3 11 Sur 31 Sur 0 -- -- 48
2019-02-09 17:00:00 16.4 7 Sudeste 18 Sur 0 -- -- 51
2019-02-09 16:00:00 15.4 4 Noroeste 10 Norte 0 -- -- 60
2019-02-09 15:00:00 16 3 Nordeste 9 Noroeste 0 -- -- 57
2019-02-09 14:00:00 15.4 5 Norte 10 Norte 0 -- -- 62
2019-02-09 13:00:00 15.5 4 Nordeste 8 Nordeste 0 -- -- 57
2019-02-09 12:00:00 13.5 0 Calma 6 Oeste 0 -- -- 63
2019-02-09 11:00:00 11.9 4 Oeste 7 Oeste 0 -- -- 70
2019-02-09 10:00:00 10.9 2 Sudeste 8 Oeste 0 -- -- 72
2019-02-09 09:00:00 9.9 0 Calma 4 Noroeste 0 -- -- 67
2019-02-09 08:00:00 10.4 2 Nordeste 7 Oeste 0 -- -- 64
2019-02-09 07:00:00 11 0 Calma 8 Oeste 0 -- -- 61
2019-02-09 06:00:00 11.6 2 Norte 5 Oeste 0 -- -- 59
2019-02-09 05:00:00 11.7 0 Calma 7 Oeste 0 -- -- 58
2019-02-09 04:00:00 12.1 3 Oeste 7 Oeste 0 -- -- 57
2019-02-09 03:00:00 12.1 5 Oeste 9 Oeste 0 -- -- 58
2019-02-09 02:00:00 12.7 8 Oeste 17 Oeste 0 -- -- 56
2019-02-09 01:00:00 12.7 8 Oeste 15 Sudoeste 0 -- -- 56
2019-02-09 00:00:00 12.4 8 Sudoeste 12 Sudoeste 0 -- -- 56
2019-02-08 23:00:00 10.7 4 Noroeste 8 Oeste 0 -- -- 71
2019-02-08 22:00:00 9.7 3 Nordeste 9 Oeste 0 -- -- 81
2019-02-08 21:00:00 8.9 8 Oeste 13 Noroeste 0 -- -- 85
2019-02-08 20:00:00 9.8 6 Noroeste 17 Sudoeste 0 -- -- 82
2019-02-08 19:00:00 10.2 11 Sudoeste 17 Sudoeste 0 -- -- 84
2019-02-08 18:00:00 11.3 9 Oeste 17 Sudoeste 0 -- -- 76
2019-02-08 17:00:00 13 10 Oeste 19 Oeste 0 -- -- 75
2019-02-08 16:00:00 14.7 4 Este 13 Nordeste 0 -- -- 73
2019-02-08 15:00:00 14.7 3 Este 11 Este 0 -- -- 68
2019-02-08 14:00:00 15.6 5 Norte 9 Nordeste 0 -- -- 60
2019-02-08 13:00:00 14.2 2 Norte 5 Sur 0 -- -- 60
2019-02-08 12:00:00 13.1 0 Calma 6 Este 0 -- -- 61
2019-02-08 11:00:00 11.6 3 Noroeste 7 Noroeste 0 -- -- 65
2019-02-08 10:00:00 9.5 3 Sudeste 5 Sudeste 0 -- -- 80
2019-02-08 09:00:00 7.6 2 Este 5 Norte 0 -- -- 78
2019-02-08 08:00:00 7.2 0 Calma 5 Oeste 0 -- -- 78
2019-02-08 07:00:00 6.8 2 Oeste 5 Oeste 0 -- -- 81
2019-02-08 06:00:00 6.2 2 Sudeste 4 Sudeste 0 -- -- 85
2019-02-08 05:00:00 6.3 0 Calma 7 Oeste 0 -- -- 84
2019-02-08 04:00:00 6.3 3 Oeste 9 Este 0 -- -- 84
2019-02-08 03:00:00 7.1 0 Calma 5 Noroeste 0 -- -- 79
2019-02-08 02:00:00 7.2 3 Sudoeste 6 Oeste 0 -- -- 80
2019-02-08 01:00:00 7.7 3 Noroeste 5 Norte 0 -- -- 79
2019-02-08 00:00:00 7.8 3 Sudoeste 5 Oeste 0 -- -- 79
2019-02-07 23:00:00 8 4 Oeste 6 Oeste 0 -- -- 77
2019-02-07 22:00:00 8.6 0 Calma 5 Sudeste 0 -- -- 73
2019-02-07 21:00:00 9.5 0 Calma 8 Sudoeste 0 -- -- 76
2019-02-07 20:00:00 9.7 6 Sur 10 Sur 0 -- -- 77
2019-02-07 19:00:00 10 4 Sudoeste 12 Oeste 0 -- -- 78
2019-02-07 18:00:00 10.6 4 Oeste 18 Oeste 0 -- -- 79
2019-02-07 17:00:00 11.1 7 Oeste 22 Sudoeste 0 -- -- 76
2019-02-07 16:00:00 11.4 6 Oeste 25 Oeste 0 -- -- 79
2019-02-07 15:00:00 11.4 6 Oeste 25 Sudoeste 0 -- -- 80
2019-02-07 14:00:00 11.2 9 Oeste 22 Oeste 0 -- -- 82
2019-02-07 13:00:00 10.9 9 Oeste 25 Oeste 0.2 -- -- 90
2019-02-07 12:00:00 10.9 7 Sudoeste 20 Oeste 0 -- -- 87
2019-02-07 11:00:00 11.7 9 Sudoeste 21 Sudoeste 0 -- -- 78
2019-02-07 10:00:00 10.9 9 Sudoeste 23 Oeste 0 -- -- 82
2019-02-07 09:00:00 10.1 10 Sudoeste 20 Sudoeste 0 -- -- 84
2019-02-07 08:00:00 10.2 5 Oeste 9 Noroeste 0 -- -- 81
2019-02-07 07:00:00 9.9 4 Oeste 8 Oeste 0 -- -- 83
2019-02-07 06:00:00 10.5 0 Calma 8 Oeste 0 -- -- 81
2019-02-07 05:00:00 10.5 3 Sudoeste 8 Oeste 0 -- -- 82
2019-02-07 04:00:00 10.2 3 Sudoeste 17 Oeste 0 -- -- 84
2019-02-07 03:00:00 10.7 5 Oeste 18 Sudoeste 0 -- -- 85
2019-02-07 02:00:00 10.5 9 Sudoeste 24 Oeste 0 -- -- 91
2019-02-07 01:00:00 10.7 15 Sudoeste 32 Oeste 0 -- -- 91
2019-02-07 00:00:00 10.7 16 Sudoeste 32 Sudoeste 0 -- -- 89
2019-02-06 23:00:00 12.1 6 Sudoeste 13 Sudoeste 0 -- -- 83
2019-02-06 22:00:00 12.4 4 Oeste 8 Oeste 0 -- -- 89
2019-02-06 21:00:00 12.6 4 Sudoeste 8 Sudoeste 0 -- -- 90
2019-02-06 20:00:00 12.2 6 Oeste 8 Oeste 0 -- -- 89
2019-02-06 19:00:00 13 3 Oeste 7 Oeste 0 -- -- 86
2019-02-06 18:00:00 14.3 4 Oeste 6 Oeste 0 -- -- 83
2019-02-06 17:00:00 15 5 Oeste 8 Noroeste 0 -- -- 80
2019-02-06 16:00:00 15.6 7 Noroeste 11 Noroeste 0 -- -- 78
2019-02-06 15:00:00 15.7 6 Norte 11 Norte 0 -- -- 76
2019-02-06 14:00:00 16 5 Norte 9 Nordeste 0 -- -- 72
2019-02-06 13:00:00 15.2 3 Nordeste 11 Nordeste 0 -- -- 77
2019-02-06 12:00:00 14.1 4 Sudeste 11 Sudeste 0 -- -- 89
2019-02-06 11:00:00 11.9 4 Sudeste 8 Este 0 -- -- 99
2019-02-06 10:00:00 10.4 2 Sudoeste 10 Sudeste 0.2 -- -- 99
2019-02-06 09:00:00 9.8 2 Sudoeste 9 Sudeste 0 -- -- 99
2019-02-06 08:00:00 10 2 Sudeste 6 Oeste 0 -- -- 99
2019-02-06 07:00:00 9.9 5 Oeste 6 Oeste 0 -- -- 99
2019-02-06 06:00:00 10 3 Oeste 5 Oeste 0 -- -- 99
2019-02-06 05:00:00 10.2 0 Calma 2 Sudeste 0 -- -- 98
2019-02-06 04:00:00 10.1 3 Sudoeste 5 Oeste 0 -- -- 98
2019-02-06 03:00:00 10.3 2 Sudeste 3 Sudeste 0 -- -- 98
2019-02-06 02:00:00 10.3 0 Calma 2 Oeste 0 -- -- 98
2019-02-06 01:00:00 10.4 2 Nordeste 4 Norte 0.2 -- -- 98
2019-02-06 00:00:00 10.4 0 Calma 4 Oeste 0.4 -- -- 97
2019-02-05 23:00:00 10.5 3 Oeste 17 Sudoeste 0.4 -- -- 96
2019-02-05 22:00:00 10.6 8 Sudoeste 14 Sudoeste 0.6 -- -- 97
2019-02-05 21:00:00 10.6 6 Sudoeste 13 Sudoeste 0.8 -- -- 96
2019-02-05 20:00:00 10.7 8 Sudoeste 18 Sudoeste 0 -- -- 96
2019-02-05 19:00:00 10.7 8 Sudoeste 21 Sudoeste 0.6 -- -- 96
2019-02-05 18:00:00 10.6 10 Sudoeste 21 Sudoeste 0.2 -- -- 96
2019-02-05 17:00:00 10.5 10 Sudoeste 23 Oeste 0 -- -- 96
2019-02-05 16:00:00 10.7 7 Oeste 19 Sudoeste 0.2 -- -- 96
2019-02-05 15:00:00 10.9 9 Sudoeste 17 Sudoeste 0.4 -- -- 95
2019-02-05 14:00:00 11.1 6 Oeste 17 Oeste 0.2 -- -- 95
2019-02-05 13:00:00 11 6 Oeste 19 Sudoeste 0.2 -- -- 94
2019-02-05 12:00:00 10.8 8 Sudoeste 17 Sudoeste 0.2 -- -- 93
2019-02-05 11:00:00 11.2 7 Sudoeste 24 Sudoeste 0 -- -- 91
2019-02-05 10:00:00 11.3 12 Sudoeste 24 Oeste 0 -- -- 90
2019-02-05 09:00:00 10.7 14 Sudoeste 29 Sudoeste 0 -- -- 91
2019-02-05 08:00:00 11 10 Sudoeste 28 Oeste 0 -- -- 88
2019-02-05 07:00:00 10.9 13 Sudoeste 29 Sudoeste 0 -- -- 89
2019-02-05 06:00:00 11.2 13 Sudoeste 27 Sudoeste 0 -- -- 87
2019-02-05 05:00:00 10.6 14 Sudoeste 28 Sudoeste 0 -- -- 93
2019-02-05 04:00:00 10.4 12 Sudoeste 29 Oeste 0 -- -- 94
2019-02-05 03:00:00 10.2 16 Sudoeste 31 Oeste 0.2 -- -- 95
2019-02-05 02:00:00 10.2 14 Sudoeste 30 Sudoeste 0.2 -- -- 95
2019-02-05 01:00:00 9.8 13 Sudoeste 30 Oeste 0 -- -- 95
2019-02-05 00:00:00 9.6 14 Sudoeste 25 Sudoeste 0 -- -- 94
2019-02-04 23:00:00 9.8 12 Sudoeste 34 Oeste 0 -- -- 92
2019-02-04 22:00:00 9.9 15 Sudoeste 27 Sur 0 -- -- 92
2019-02-04 21:00:00 9.2 12 Sudoeste 37 Oeste 0 -- -- 91
2019-02-04 20:00:00 9.6 11 Sudoeste 34 Sudoeste 0 -- -- 83
2019-02-04 19:00:00 8.5 7 Sudoeste 14 Sudoeste 0.4 -- -- 88
2019-02-04 18:00:00 8.9 5 Oeste 12 Sudoeste 0.4 -- -- 80
2019-02-04 17:00:00 10 4 Oeste 12 Sudoeste 0 -- -- 67
2019-02-04 16:00:00 11.3 9 Oeste 22 Sudoeste 0 -- -- 53
2019-02-04 15:00:00 11.6 2 Oeste 7 Noroeste 0 -- -- 61
2019-02-04 14:00:00 10.9 0 Calma 6 Oeste 0 -- -- 69
2019-02-04 13:00:00 9 3 Oeste 5 Sudoeste 0 -- -- 71
2019-02-04 12:00:00 7.3 3 Oeste 6 Oeste 0 -- -- 75
2019-02-04 11:00:00 5.2 2 Sudeste 7 Oeste 0 -- -- 83
2019-02-04 10:00:00 3.5 3 Sudeste 8 Oeste 0 -- -- 90
2019-02-04 09:00:00 2.1 3 Sur 8 Oeste 0 -- -- 89
2019-02-04 08:00:00 2.2 2 Sudoeste 7 Oeste 0 -- -- 90
2019-02-04 07:00:00 2.1 0 Calma 10 Oeste 0 -- -- 93
2019-02-04 06:00:00 2.3 2 Noroeste 8 Oeste 0 -- -- 95
2019-02-04 05:00:00 2.9 5 Oeste 9 Oeste 0 -- -- 95
2019-02-04 04:00:00 2.9 0 Calma 6 Oeste 0 -- -- 94
2019-02-04 03:00:00 3.4 2 Sudoeste 9 Oeste 0 -- -- 94
2019-02-04 02:00:00 3.7 4 Oeste 6 Oeste 0 -- -- 94
2019-02-04 01:00:00 4.1 3 Sudoeste 11 Sur 0 -- -- 92
2019-02-04 00:00:00 4.6 5 Sur 12 Sudoeste 1.4 -- -- 93
2019-02-03 23:00:00 4.3 0 Calma 9 Oeste 0 -- -- 89
2019-02-03 22:00:00 4.6 4 Oeste 13 Sudoeste 0 -- -- 85
2019-02-03 21:00:00 4.6 7 Oeste 12 Sudoeste 0 -- -- 85
2019-02-03 20:00:00 5 3 Sudoeste 9 Oeste 0.2 -- -- 84
2019-02-03 19:00:00 5.6 6 Sudoeste 17 Sudoeste 0 -- -- 80
2019-02-03 18:00:00 6.2 9 Sudoeste 14 Sudoeste 0 -- -- 80
2019-02-03 17:00:00 6.8 7 Oeste 18 Oeste 0 -- -- 78
2019-02-03 16:00:00 7.3 9 Sudoeste 17 Sudoeste 0 -- -- 77
2019-02-03 15:00:00 8.2 5 Oeste 14 Norte 0 -- -- 73
2019-02-03 14:00:00 7.9 6 Oeste 12 Sudoeste 0 -- -- 72
2019-02-03 13:00:00 6.2 5 Oeste 12 Oeste 0 -- -- 80
2019-02-03 12:00:00 5 4 Sudeste 11 Oeste 0 -- -- 94
2019-02-03 11:00:00 4.2 2 Noroeste 9 Sudeste 0.8 -- -- 97
2019-02-03 10:00:00 2.5 4 Este 14 Este 0.2 -- -- 96
2019-02-03 09:00:00 1.7 2 Este 11 Sudeste 0.2 -- -- 95
2019-02-03 08:00:00 1.7 6 Noroeste 15 Norte 0.6 -- -- 94
2019-02-03 07:00:00 2.1 4 Sudeste 39 Norte 0.6 -- -- 94
2019-02-03 06:00:00 2.7 5 Sur 16 Oeste 1 -- -- 94
2019-02-03 05:00:00 2.5 3 Sudeste 12 Oeste 0.2 -- -- 92
2019-02-03 04:00:00 1.9 2 Sudoeste 11 Sudeste 0.8 -- -- 93
2019-02-03 03:00:00 1.8 4 Sur 16 Oeste 2.6 -- -- 92
2019-02-03 02:00:00 2.6 4 Sudeste 11 Este 0.2 -- -- 91
2019-02-03 01:00:00 3.2 3 Este 19 Nordeste 1.2 -- -- 86
2019-02-03 00:00:00 7 15 Norte 42 Norte 0 -- -- 69
2019-02-02 23:00:00 7 19 Norte 52 Norte 0 -- -- 66
2019-02-02 22:00:00 6.4 21 Noroeste 45 Oeste 0.4 -- -- 76
2019-02-02 21:00:00 6 19 Noroeste 48 Noroeste 0.4 -- -- 79
2019-02-02 20:00:00 5.2 11 Noroeste 48 Noroeste 0.6 -- -- 85
2019-02-02 19:00:00 6.3 21 Noroeste 61 Noroeste 0.2 -- -- 76
2019-02-02 18:00:00 6.8 28 Noroeste 60 Noroeste 0 -- -- 72
2019-02-02 17:00:00 6 21 Noroeste 43 Noroeste 0.8 -- -- 75
2019-02-02 16:00:00 8 22 Noroeste 52 Noroeste 0 -- -- 62
2019-02-02 15:00:00 7.4 27 Noroeste 57 Noroeste 0.2 -- -- 66
2019-02-02 14:00:00 7.9 30 Noroeste 65 Noroeste 0 -- -- 63
2019-02-02 13:00:00 7 32 Noroeste 61 Noroeste 0.2 -- -- 72
2019-02-02 12:00:00 7.3 33 Noroeste 67 Noroeste 0 -- -- 75
2019-02-02 11:00:00 5.9 29 Noroeste 66 Noroeste 0 -- -- 87
2019-02-02 10:00:00 6.2 25 Noroeste 65 Noroeste 2 -- -- 91
2019-02-02 09:00:00 5.7 32 Noroeste 66 Noroeste 0.8 -- -- 85
2019-02-02 08:00:00 7.2 38 Noroeste 68 Noroeste 1.6 -- -- 90
2019-02-02 07:00:00 7.6 34 Noroeste 66 Noroeste 1.4 -- -- 88
2019-02-02 06:00:00 7.2 24 Noroeste 46 Oeste 1.8 -- -- 90
2019-02-02 05:00:00 6.4 5 Oeste 34 Sudoeste 3.6 -- -- 93
2019-02-02 04:00:00 6.1 17 Sudoeste 32 Sudoeste 0.4 -- -- 90
2019-02-02 03:00:00 6.7 8 Oeste 36 Sudoeste 0.2 -- -- 92
2019-02-02 02:00:00 5.9 15 Sudoeste 41 Sudoeste 3.2 -- -- 90
2019-02-02 01:00:00 6.1 15 Sudoeste 31 Sudoeste 1.4 -- -- 87
2019-02-02 00:00:00 6 14 Sudoeste 27 Sudoeste 0.6 -- -- 90
2019-02-01 23:00:00 5.8 8 Sudoeste 17 Sudoeste 3 -- -- 92
2019-02-01 22:00:00 6.5 5 Sudoeste 18 Sudoeste 0 -- -- 80
2019-02-01 21:00:00 7 8 Sudoeste 23 Sudoeste 0 -- -- 75
2019-02-01 20:00:00 6.1 8 Oeste 23 Sudoeste 0 -- -- 82
2019-02-01 19:00:00 5.6 8 Sudoeste 39 Oeste 1 -- -- 89
2019-02-01 18:00:00 7.8 12 Oeste 31 Oeste 0.2 -- -- 85
2019-02-01 17:00:00 8.5 8 Oeste 29 Oeste 1.6 -- -- 86
2019-02-01 16:00:00 11.5 14 Oeste 39 Oeste 0 -- -- 61
2019-02-01 15:00:00 12.8 8 Sudoeste 44 Sur 0 -- -- 50
2019-02-01 14:00:00 12.8 14 Sudoeste 33 Sudoeste 0 -- -- 49
2019-02-01 13:00:00 12.3 8 Sudoeste 40 Sudoeste 0 -- -- 51
2019-02-01 12:00:00 12.2 17 Sudoeste 37 Oeste 0 -- -- 50
2019-02-01 11:00:00 12.3 13 Sudoeste 48 Sudoeste 0 -- -- 51
2019-02-01 10:00:00 11.4 18 Sudoeste 44 Sudoeste 0 -- -- 54
2019-02-01 09:00:00 10.6 15 Sudoeste 36 Oeste 0 -- -- 62
2019-02-01 08:00:00 8.1 8 Sudoeste 22 Sudoeste 0 -- -- 85
2019-02-01 07:00:00 7 3 Sudeste 9 Sur 0 -- -- 95
2019-02-01 06:00:00 7.6 4 Oeste 8 Sudoeste 0 -- -- 95
2019-02-01 05:00:00 8.3 3 Sur 8 Sur 0.2 -- -- 95
2019-02-01 04:00:00 8.5 6 Sudoeste 9 Oeste 0.6 -- -- 95
2019-02-01 03:00:00 9.1 0 Calma 10 Sudoeste 0.8 -- -- 91
2019-02-01 02:00:00 10.2 4 Sur 13 Sur 0 -- -- 81
2019-02-01 01:00:00 9.5 9 Sudoeste 16 Sudoeste 0 -- -- 94
2019-02-01 00:00:00 9.4 5 Oeste 18 Sudoeste 0.4 -- -- 93
2019-01-31 23:00:00 9.9 8 Sudoeste 20 Sudoeste 2.2 -- -- 92
2019-01-31 22:00:00 10 13 Sudoeste 26 Sudoeste 3 -- -- 93
2019-01-31 21:00:00 10 11 Sudoeste 24 Sudoeste 5.4 -- -- 95
2019-01-31 20:00:00 10.2 12 Sudoeste 31 Sudoeste 5.8 -- -- 95
2019-01-31 19:00:00 10.6 10 Noroeste 42 Noroeste 10.6 -- -- 94
2019-01-31 18:00:00 12.1 3 Este 18 Nordeste 0.8 -- -- 93
2019-01-31 17:00:00 13.4 7 Norte 29 Oeste 0 -- -- 84
2019-01-31 16:00:00 16.8 8 Oeste 32 Oeste 0 -- -- 67
2019-01-31 15:00:00 16.3 16 Oeste 33 Sudoeste 0 -- -- 67
2019-01-31 14:00:00 15.4 12 Sudoeste 28 Oeste 0.2 -- -- 72
2019-01-31 13:00:00 13.4 7 Sudoeste 32 Sudoeste 0.4 -- -- 84
2019-01-31 12:00:00 13.1 8 Oeste 23 Oeste 0 -- -- 82
2019-01-31 11:00:00 11.6 11 Oeste 31 Sudoeste 0 -- -- 89
2019-01-31 10:00:00 11.2 11 Oeste 28 Sudoeste 0.6 -- -- 89
2019-01-31 09:00:00 10.5 12 Sudoeste 26 Sudoeste 3.6 -- -- 93
2019-01-31 08:00:00 10.3 12 Oeste 27 Oeste 4.2 -- -- 91
2019-01-31 07:00:00 9.9 9 Oeste 32 Sur 2 -- -- 89
2019-01-31 06:00:00 9.8 8 Oeste 31 Sudoeste 0.6 -- -- 86
2019-01-31 05:00:00 9.5 7 Oeste 27 Sudoeste 0.6 -- -- 85
2019-01-31 04:00:00 9.3 14 Sudoeste 29 Sudoeste 1 -- -- 82
2019-01-31 03:00:00 8.6 11 Oeste 31 Oeste 1 -- -- 81
2019-01-31 02:00:00 8.5 10 Oeste 28 Sudoeste 0.8 -- -- 80
2019-01-31 01:00:00 8.2 10 Oeste 37 Sudoeste 0.6 -- -- 80
2019-01-31 00:00:00 8 9 Sudoeste 28 Sudoeste 1.8 -- -- 81
2019-01-30 23:00:00 9.2 11 Oeste 32 Oeste 0 -- -- 75
2019-01-30 22:00:00 10 9 Sudoeste 22 Oeste 0 -- -- 65
2019-01-30 21:00:00 9.1 5 Sudoeste 12 Sudoeste 0 -- -- 61
2019-01-30 20:00:00 8.6 2 Oeste 7 Noroeste 0 -- -- 59
2019-01-30 19:00:00 9 4 Oeste 10 Oeste 0 -- -- 56
2019-01-30 18:00:00 9.4 6 Sudoeste 14 Oeste 0 -- -- 55
2019-01-30 17:00:00 10.1 6 Sudoeste 22 Sudoeste 0 -- -- 61
2019-01-30 16:00:00 10 9 Sudoeste 21 Sudoeste 0.2 -- -- 63
2019-01-30 15:00:00 10.1 3 Sudoeste 15 Sudoeste 0 -- -- 75
2019-01-30 14:00:00 8.2 4 Oeste 14 Oeste 0 -- -- 87
2019-01-30 13:00:00 6 8 Oeste 31 Oeste 0.8 -- -- 89
2019-01-30 12:00:00 5.7 12 Sudoeste 29 Sudoeste 1.4 -- -- 89
2019-01-30 11:00:00 5.6 17 Sudoeste 41 Sudoeste 0.4 -- -- 89
2019-01-30 10:00:00 5.1 19 Sudoeste 35 Sudoeste 1.6 -- -- 91
2019-01-30 09:00:00 4.9 10 Oeste 39 Sudoeste 4 -- -- 91
2019-01-30 08:00:00 5.4 14 Sudoeste 39 Oeste 1.6 -- -- 89
2019-01-30 07:00:00 5.6 18 Sudoeste 39 Sudoeste 0.6 -- -- 90
2019-01-30 06:00:00 5.9 20 Sudoeste 40 Noroeste 0.8 -- -- 88
2019-01-30 05:00:00 8.2 14 Noroeste 45 Oeste 0 -- -- 74
2019-01-30 04:00:00 7.8 22 Oeste 63 Oeste 0 -- -- 69
2019-01-30 03:00:00 8.3 13 Oeste 41 Sudoeste 0 -- -- 70
2019-01-30 02:00:00 8.4 13 Noroeste 50 Sudoeste 0 -- -- 68
2019-01-30 01:00:00 7.8 26 Oeste 70 Oeste 0 -- -- 66
2019-01-30 00:00:00 6.3 15 Noroeste 71 Oeste 0.4 -- -- 83
2019-01-29 23:00:00 7.1 15 Oeste 69 Oeste 0.2 -- -- 73
2019-01-29 22:00:00 7.8 25 Oeste 82 Oeste 0 -- -- 69
2019-01-29 21:00:00 9.1 30 Oeste 84 Oeste 0.2 -- -- 69
2019-01-29 20:00:00 8.8 34 Oeste 80 Oeste 0.2 -- -- 81
2019-01-29 19:00:00 8.9 33 Oeste 72 Oeste 2.4 -- -- 84
2019-01-29 18:00:00 8.8 23 Oeste 87 Oeste 2 -- -- 84
2019-01-29 17:00:00 10.5 25 Oeste 63 Oeste 0 -- -- 82
2019-01-29 16:00:00 9.9 14 Oeste 69 Sudoeste 2 -- -- 85
2019-01-29 15:00:00 10 19 Sudoeste 44 Oeste 0.8 -- -- 78
2019-01-29 14:00:00 9.3 13 Oeste 28 Oeste 1.2 -- -- 83
2019-01-29 13:00:00 9.8 7 Oeste 23 Sudoeste 0 -- -- 80
2019-01-29 12:00:00 9.7 6 Oeste 17 Sudoeste 0 -- -- 84
2019-01-29 11:00:00 8.3 8 Sudoeste 24 Oeste 0.8 -- -- 83
2019-01-29 10:00:00 8.6 13 Sudoeste 21 Sudoeste 0.2 -- -- 82
2019-01-29 09:00:00 8 9 Sudoeste 20 Sudoeste 0 -- -- 88
2019-01-29 08:00:00 7.5 12 Sudoeste 27 Sudoeste 0.2 -- -- 93
2019-01-29 07:00:00 7.3 13 Sudoeste 28 Sudoeste 0.8 -- -- 93
2019-01-29 06:00:00 7.2 12 Sudoeste 27 Sudoeste 1.2 -- -- 92
2019-01-29 05:00:00 7.7 13 Sudoeste 28 Sudoeste 0.6 -- -- 90
2019-01-29 04:00:00 8.7 11 Sudoeste 29 Oeste 0 -- -- 83
2019-01-29 03:00:00 8.7 8 Oeste 28 Oeste 0 -- -- 80
2019-01-29 02:00:00 8.4 8 Noroeste 23 Noroeste 0 -- -- 84
2019-01-29 01:00:00 7.8 10 Noroeste 38 Oeste 0.4 -- -- 84
2019-01-29 00:00:00 9.1 12 Oeste 32 Noroeste 0 -- -- 82
2019-01-28 23:00:00 9 14 Noroeste 34 Noroeste 0 -- -- 79
2019-01-28 22:00:00 8.8 16 Noroeste 36 Noroeste 0.4 -- -- 83
2019-01-28 21:00:00 9 17 Noroeste 39 Oeste 0 -- -- 82
2019-01-28 20:00:00 8.7 12 Noroeste 59 Noroeste 0.8 -- -- 84
2019-01-28 19:00:00 9.6 20 Noroeste 51 Oeste 0 -- -- 79
2019-01-28 18:00:00 9.6 22 Noroeste 45 Noroeste 0 -- -- 82
2019-01-28 17:00:00 9.6 18 Noroeste 47 Noroeste 0 -- -- 81
2019-01-28 16:00:00 9.6 19 Noroeste 52 Sudoeste 0 -- -- 87
2019-01-28 15:00:00 8.3 21 Oeste 63 Noroeste 4 -- -- 87
2019-01-28 14:00:00 10.3 21 Oeste 59 Oeste 0 -- -- 78
2019-01-28 13:00:00 10.4 19 Oeste 59 Oeste 0 -- -- 81
2019-01-28 12:00:00 10.4 21 Oeste 54 Noroeste 0 -- -- 79
2019-01-28 11:00:00 10.4 19 Oeste 56 Oeste 0.2 -- -- 80
2019-01-28 10:00:00 10 25 Noroeste 60 Noroeste 0 -- -- 74
2019-01-28 09:00:00 9.9 30 Noroeste 72 Noroeste 0.4 -- -- 83
2019-01-28 08:00:00 10.1 21 Oeste 69 Oeste 4 -- -- 92
2019-01-28 07:00:00 9.6 22 Oeste 66 Oeste 1.6 -- -- 92
2019-01-28 06:00:00 10.1 25 Oeste 71 Oeste 1 -- -- 93
2019-01-28 05:00:00 7.9 21 Oeste 42 Sudoeste 2 -- -- 94
2019-01-28 04:00:00 7.4 18 Sudoeste 57 Sudoeste 0.8 -- -- 91
2019-01-28 03:00:00 7.2 22 Sudoeste 49 Sudoeste 1.6 -- -- 92
2019-01-28 02:00:00 7.2 18 Sudoeste 44 Oeste 0 -- -- 85
2019-01-28 01:00:00 7.4 13 Sudoeste 55 Oeste 0.8 -- -- 85
2019-01-28 00:00:00 8.5 16 Oeste 37 Oeste 0 -- -- 83
2019-01-27 23:00:00 7.5 19 Oeste 57 Noroeste 0.8 -- -- 83
2019-01-27 22:00:00 8.6 14 Noroeste 43 Oeste 0 -- -- 76
2019-01-27 21:00:00 7.1 12 Oeste 50 Noroeste 2.8 -- -- 86
2019-01-27 20:00:00 8.2 7 Oeste 52 Oeste 0 -- -- 77
2019-01-27 19:00:00 8.8 15 Oeste 53 Oeste 0 -- -- 74
2019-01-27 18:00:00 8 9 Noroeste 55 Oeste 0 -- -- 81
2019-01-27 17:00:00 9.1 16 Oeste 52 Sudoeste 0 -- -- 65
2019-01-27 16:00:00 7.3 19 Oeste 70 Oeste 1 -- -- 81
2019-01-27 15:00:00 8.8 15 Oeste 72 Norte 1 -- -- 71
2019-01-27 14:00:00 9.1 21 Oeste 67 Sudoeste 0 -- -- 78
2019-01-27 13:00:00 9.3 31 Oeste 69 Oeste 1.8 -- -- 77
2019-01-27 12:00:00 9.4 19 Oeste 67 Oeste 1.8 -- -- 77
2019-01-27 11:00:00 7.9 17 Oeste 71 Oeste 2 -- -- 88
2019-01-27 10:00:00 7.5 20 Sudoeste 60 Sudoeste 2.2 -- -- 90
2019-01-27 09:00:00 8 16 Oeste 45 Sudoeste 1 -- -- 87
2019-01-27 08:00:00 8.9 25 Sudoeste 47 Oeste 0 -- -- 79
2019-01-27 07:00:00 8.3 22 Oeste 68 Oeste 0.8 -- -- 83
2019-01-27 06:00:00 9.6 21 Sudoeste 54 Oeste 0.6 -- -- 83
2019-01-27 05:00:00 9.4 19 Oeste 47 Oeste 2.2 -- -- 93
2019-01-27 04:00:00 9.6 19 Sudoeste 44 Sudoeste 0 -- -- 84
2019-01-27 03:00:00 8.7 14 Sudoeste 22 Sudoeste 0 -- -- 86
2019-01-27 02:00:00 7.9 5 Oeste 24 Sudoeste 0 -- -- 87
2019-01-27 01:00:00 9.3 14 Sudoeste 26 Sudoeste 0 -- -- 83
2019-01-27 00:00:00 9.3 12 Sudoeste 22 Sudoeste 0 -- -- 83
2019-01-26 23:00:00 9.2 12 Sudoeste 22 Sudoeste 0 -- -- 86
2019-01-26 22:00:00 9.2 11 Sudoeste 27 Sudoeste 0 -- -- 88
2019-01-26 21:00:00 8.5 4 Oeste 17 Sudoeste 0 -- -- 86
2019-01-26 20:00:00 9.1 8 Sudoeste 14 Sudoeste 0 -- -- 85
2019-01-26 19:00:00 9.4 0 Calma 4 Sudeste 0 -- -- 82
2019-01-26 18:00:00 10.4 2 Norte 6 Nordeste 0 -- -- 81
2019-01-26 17:00:00 11.7 3 Nordeste 9 Este 0 -- -- 77
2019-01-26 16:00:00 12.7 4 Nordeste 9 Norte 0 -- -- 76
2019-01-26 15:00:00 12.8 2 Este 10 Nordeste 0 -- -- 84
2019-01-26 14:00:00 12.1 3 Noroeste 8 Sudoeste 0 -- -- 79
2019-01-26 13:00:00 11.5 3 Noroeste 6 Noroeste 0 -- -- 90
2019-01-26 12:00:00 11 0 Calma 4 Este 0 -- -- 97
2019-01-26 11:00:00 10 0 Calma 5 Sur 0.2 -- -- 97
2019-01-26 10:00:00 9.3 3 Sur 7 Sudoeste 0.8 -- -- 96
2019-01-26 09:00:00 9.1 5 Sudoeste 9 Sudoeste 0.2 -- -- 94
2019-01-26 08:00:00 9.4 4 Sudoeste 15 Sudoeste 0 -- -- 91
2019-01-26 07:00:00 9.6 8 Sudoeste 17 Sudoeste 0 -- -- 90
2019-01-26 06:00:00 9.6 10 Sudoeste 19 Oeste 0.2 -- -- 95
2019-01-26 05:00:00 9.6 6 Oeste 18 Sur 0 -- -- 96
2019-01-26 04:00:00 9.9 8 Sudoeste 15 Sudoeste 0.6 -- -- 97
2019-01-26 03:00:00 9.8 6 Sudoeste 12 Sudoeste 0 -- -- 97
2019-01-26 02:00:00 9.4 3 Sudoeste 15 Noroeste 0.2 -- -- 98
2019-01-26 01:00:00 9.4 4 Sudoeste 15 Oeste 0.4 -- -- 98
2019-01-26 00:00:00 9.5 4 Oeste 13 Oeste 1 -- -- 98
2019-01-25 23:00:00 9.7 4 Oeste 15 Noroeste 0.2 -- -- 98
2019-01-25 22:00:00 9.7 5 Oeste 14 Noroeste 2 -- -- 97
2019-01-25 21:00:00 9.9 9 Noroeste 22 Noroeste 0.8 -- -- 97
2019-01-25 20:00:00 9.8 6 Oeste 24 Sudoeste 0.4 -- -- 97
2019-01-25 19:00:00 9.9 8 Oeste 33 Noroeste 1 -- -- 96
2019-01-25 18:00:00 10 18 Noroeste 34 Oeste 2 -- -- 96
2019-01-25 17:00:00 10.2 16 Noroeste 33 Noroeste 1 -- -- 95
2019-01-25 16:00:00 10.3 10 Noroeste 35 Noroeste 1.2 -- -- 94
2019-01-25 15:00:00 10.6 13 Noroeste 30 Oeste 0.2 -- -- 94
2019-01-25 14:00:00 10.4 19 Noroeste 37 Oeste 1 -- -- 96
2019-01-25 13:00:00 10.4 14 Noroeste 35 Noroeste 1.4 -- -- 96
2019-01-25 12:00:00 10.3 17 Noroeste 40 Norte 3.2 -- -- 96
2019-01-25 11:00:00 10.2 18 Noroeste 41 Noroeste 0.8 -- -- 97
2019-01-25 10:00:00 10 18 Noroeste 51 Noroeste 5.6 -- -- 96
2019-01-25 09:00:00 10.3 16 Noroeste 41 Noroeste 1.6 -- -- 95
2019-01-25 08:00:00 10.5 19 Noroeste 36 Noroeste 0.6 -- -- 94
2019-01-25 07:00:00 10.5 16 Noroeste 36 Noroeste 0 -- -- 93
2019-01-25 06:00:00 9.9 18 Noroeste 37 Oeste 0.6 -- -- 95
2019-01-25 05:00:00 9.5 17 Noroeste 33 Oeste 0 -- -- 97
2019-01-25 04:00:00 7.8 8 Oeste 23 Noroeste 0 -- -- 98
2019-01-25 03:00:00 5.3 0 Calma 6 Oeste 0.6 -- -- 96
2019-01-25 02:00:00 5.2 2 Oeste 3 Oeste 0.4 -- -- 95
2019-01-25 01:00:00 5.2 3 Noroeste 4 Norte 0 -- -- 94
2019-01-25 00:00:00 5.1 0 Calma 5 Oeste 0.2 -- -- 94
2019-01-24 23:00:00 5.2 0 Calma 6 Oeste 0 -- -- 93
2019-01-24 22:00:00 5.3 3 Noroeste 8 Oeste 0.4 -- -- 92
2019-01-24 21:00:00 5.6 4 Oeste 6 Oeste 0 -- -- 89
2019-01-24 20:00:00 5.6 3 Oeste 4 Oeste 0 -- -- 89
2019-01-24 19:00:00 5.7 3 Oeste 4 Oeste 0 -- -- 87
2019-01-24 18:00:00 5.9 3 Oeste 6 Oeste 0 -- -- 84
2019-01-24 17:00:00 6.2 3 Oeste 10 Oeste 0 -- -- 85
2019-01-24 16:00:00 6.6 5 Oeste 9 Sudoeste 0 -- -- 85
2019-01-24 15:00:00 6.5 3 Oeste 7 Oeste 0 -- -- 86
2019-01-24 14:00:00 5.9 3 Oeste 7 Oeste 0 -- -- 89
2019-01-24 13:00:00 5.4 5 Oeste 10 Sudoeste 0 -- -- 87
2019-01-24 12:00:00 4.9 3 Oeste 6 Oeste 0 -- -- 87
2019-01-24 11:00:00 4.4 0 Calma 5 Oeste 0 -- -- 75
2019-01-24 10:00:00 3.9 4 Oeste 9 Oeste 0 -- -- 84
2019-01-24 09:00:00 4 3 Nordeste 9 Nordeste 0 -- -- 83
2019-01-24 08:00:00 4 4 Nordeste 12 Este 0 -- -- 91
2019-01-24 07:00:00 4.2 3 Este 9 Este 0 -- -- 94
2019-01-24 06:00:00 4.3 5 Sudeste 10 Sudeste 1 -- -- 93
2019-01-24 05:00:00 5.3 6 Este 35 Norte 0.6 -- -- 89
2019-01-24 04:00:00 7.8 20 Norte 47 Noroeste 0 -- -- 74
2019-01-24 03:00:00 7.8 9 Norte 34 Noroeste 0 -- -- 80
2019-01-24 02:00:00 7.9 21 Noroeste 40 Noroeste 0 -- -- 74
2019-01-24 01:00:00 7.7 20 Noroeste 45 Noroeste 0 -- -- 75
2019-01-24 00:00:00 7.6 20 Noroeste 40 Noroeste 0 -- -- 83
2019-01-23 23:00:00 6.7 17 Noroeste 46 Noroeste 2 -- -- 93
2019-01-23 22:00:00 7 24 Noroeste 56 Noroeste 0.8 -- -- 92
2019-01-23 21:00:00 7.8 25 Noroeste 71 Norte 0.4 -- -- 92
2019-01-23 20:00:00 8.1 17 Noroeste 59 Norte 0.8 -- -- 93
2019-01-23 19:00:00 7.8 18 Noroeste 47 Noroeste 1.4 -- -- 92
2019-01-23 18:00:00 7.8 21 Noroeste 51 Norte 0.8 -- -- 92
2019-01-23 17:00:00 7.8 19 Noroeste 52 Norte 2 -- -- 92
2019-01-23 16:00:00 8.2 16 Noroeste 53 Noroeste 1.2 -- -- 90
2019-01-23 15:00:00 8.8 21 Noroeste 45 Noroeste 0 -- -- 83
2019-01-23 14:00:00 8.6 15 Noroeste 52 Norte 0.8 -- -- 86
2019-01-23 13:00:00 8.7 25 Noroeste 53 Noroeste 0.4 -- -- 89
2019-01-23 12:00:00 8.9 25 Noroeste 58 Noroeste 0.8 -- -- 86
2019-01-23 11:00:00 9.4 15 Noroeste 59 Oeste 1.4 -- -- 93
2019-01-23 10:00:00 8.9 21 Noroeste 75 Noroeste 2 -- -- 96
2019-01-23 09:00:00 8.9 15 Noroeste 44 Noroeste 1.2 -- -- 97
2019-01-23 08:00:00 9.9 28 Noroeste 109 Oeste 4.4 -- -- 93
2019-01-23 07:00:00 11 30 Oeste 75 Oeste 1.2 -- -- 93
2019-01-23 06:00:00 8.2 28 Sudoeste 51 Sudoeste 3 -- -- 95
2019-01-23 05:00:00 8.2 15 Sudoeste 55 Oeste 2.2 -- -- 94
2019-01-23 04:00:00 8.5 14 Oeste 39 Sudoeste 2.8 -- -- 93
2019-01-23 03:00:00 8.3 14 Sudoeste 39 Sudoeste 2.8 -- -- 94
2019-01-23 02:00:00 8.2 20 Sudoeste 43 Sudoeste 2.2 -- -- 94
2019-01-23 01:00:00 7.9 15 Oeste 44 Sudoeste 2 -- -- 94
2019-01-23 00:00:00 7.4 19 Sudoeste 40 Oeste 1 -- -- 93
2019-01-22 23:00:00 6.5 19 Sudoeste 35 Sudoeste 0.8 -- -- 90
2019-01-22 22:00:00 5.9 17 Sudoeste 32 Sudoeste 2.4 -- -- 91
2019-01-22 21:00:00 6.2 19 Sudoeste 35 Oeste 2.8 -- -- 93
2019-01-22 20:00:00 6.7 16 Sudoeste 43 Sudoeste 1.6 -- -- 92
2019-01-22 19:00:00 6.8 13 Sudoeste 28 Sudoeste 3.6 -- -- 91
2019-01-22 18:00:00 7 4 Sudoeste 21 Norte 0.6 -- -- 90
2019-01-22 17:00:00 7.5 10 Noroeste 51 Noroeste 0.2 -- -- 83
2019-01-22 16:00:00 7.9 12 Noroeste 36 Oeste 1.2 -- -- 87
2019-01-22 15:00:00 6.9 9 Oeste 29 Oeste 3 -- -- 93
2019-01-22 14:00:00 6.4 10 Sudoeste 44 Sudoeste 5.4 -- -- 95
2019-01-22 13:00:00 6.3 3 Oeste 35 Oeste 10 -- -- 93
2019-01-22 12:00:00 6.9 23 Sudoeste 47 Oeste 2.8 -- -- 89
2019-01-22 11:00:00 7 14 Sudoeste 31 Sudoeste 0.8 -- -- 87
2019-01-22 10:00:00 6.7 12 Sudoeste 26 Sudoeste 1 -- -- 88
2019-01-22 09:00:00 6.8 14 Sudoeste 24 Sudoeste 0.2 -- -- 85
2019-01-22 08:00:00 6.8 14 Sudoeste 23 Sudoeste 0 -- -- 82
2019-01-22 07:00:00 6.5 9 Sudoeste 18 Sudoeste 0 -- -- 81
2019-01-22 06:00:00 6.3 9 Sudoeste 21 Sudoeste 0 -- -- 82
2019-01-22 05:00:00 5.6 9 Sudoeste 18 Sudoeste 0 -- -- 86
2019-01-22 04:00:00 5.6 7 Oeste 17 Sudoeste 0 -- -- 86
2019-01-22 03:00:00 6.1 9 Sudoeste 17 Sudoeste 0 -- -- 83
2019-01-22 02:00:00 6.2 7 Sudoeste 17 Sudoeste 0 -- -- 84
2019-01-22 01:00:00 6.5 6 Sudoeste 12 Sudoeste 0 -- -- 82
2019-01-22 00:00:00 6.7 5 Noroeste 13 Oeste 0 -- -- 80
2019-01-21 23:00:00 6.9 6 Noroeste 19 Noroeste 0 -- -- 81
2019-01-21 22:00:00 7.2 12 Noroeste 22 Norte 0 -- -- 80
2019-01-21 21:00:00 6.7 6 Oeste 15 Oeste 0 -- -- 76
2019-01-21 20:00:00 6.4 5 Oeste 16 Noroeste 0 -- -- 74
2019-01-21 19:00:00 6.2 6 Noroeste 15 Noroeste 0 -- -- 77
2019-01-21 18:00:00 6.6 3 Noroeste 8 Noroeste 0 -- -- 87
2019-01-21 17:00:00 7.1 4 Noroeste 10 Noroeste 0 -- -- 86
2019-01-21 16:00:00 7.4 3 Noroeste 13 Noroeste 0 -- -- 85
2019-01-21 15:00:00 7.7 4 Noroeste 8 Noroeste 0 -- -- 85
2019-01-21 14:00:00 7.2 2 Oeste 8 Oeste 0 -- -- 91
2019-01-21 13:00:00 6.8 0 Calma 10 Nordeste 0 -- -- 95
2019-01-21 12:00:00 6.2 0 Calma 6 Sudeste 0.2 -- -- 96
2019-01-21 11:00:00 5.8 5 Sudoeste 12 Oeste 0 -- -- 95
2019-01-21 10:00:00 6.2 3 Este 40 Norte 0.2 -- -- 94
2019-01-21 09:00:00 6.5 4 Oeste 8 Oeste 0 -- -- 93
2019-01-21 08:00:00 6.3 4 Oeste 15 Sudoeste 0 -- -- 93
2019-01-21 07:00:00 6.2 8 Oeste 17 Sudoeste 0 -- -- 92
2019-01-21 06:00:00 6.2 5 Sudoeste 14 Sudoeste 0 -- -- 92
2019-01-21 05:00:00 6.3 7 Sudoeste 17 Sudoeste 0 -- -- 90
2019-01-21 04:00:00 6.2 9 Sudoeste 19 Sudoeste 0 -- -- 93
2019-01-21 03:00:00 5.6 5 Oeste 10 Sudeste 0.2 -- -- 94
2019-01-21 02:00:00 6.6 4 Este 14 Este 1.6 -- -- 92
2019-01-21 01:00:00 6.7 2 Sudeste 5 Sudeste 0 -- -- 91
2019-01-21 00:00:00 7.2 3 Este 22 Noroeste 0 -- -- 91
2019-01-20 23:00:00 7.7 3 Este 15 Norte 0.2 -- -- 93
2019-01-20 22:00:00 7.6 2 Este 11 Norte 0 -- -- 93
2019-01-20 21:00:00 7 5 Oeste 18 Noroeste 3.8 -- -- 91
2019-01-20 20:00:00 7.6 6 Oeste 28 Norte 0.8 -- -- 92
2019-01-20 19:00:00 8.1 4 Oeste 10 Noroeste 0 -- -- 91
2019-01-20 18:00:00 7.5 6 Oeste 33 Noroeste 6.4 -- -- 90
2019-01-20 17:00:00 9.2 6 Noroeste 22 Norte 0.4 -- -- 87
2019-01-20 16:00:00 9.2 8 Noroeste 17 Noroeste 0 -- -- 89
2019-01-20 15:00:00 9.2 11 Noroeste 24 Noroeste 0.6 -- -- 85
2019-01-20 14:00:00 9.9 11 Noroeste 26 Noroeste 0 -- -- 83
2019-01-20 13:00:00 10.1 12 Noroeste 23 Noroeste 0 -- -- 82
2019-01-20 12:00:00 8.7 5 Oeste 15 Noroeste 0 -- -- 91
2019-01-20 11:00:00 8.1 8 Noroeste 36 Noroeste 1 -- -- 88
2019-01-20 10:00:00 8.3 19 Noroeste 41 Noroeste 1.4 -- -- 87
2019-01-20 09:00:00 8.1 12 Sudoeste 24 Oeste 0.2 -- -- 93
2019-01-20 08:00:00 7.5 9 Sudoeste 23 Oeste 2.4 -- -- 91
2019-01-20 07:00:00 8.2 8 Sudoeste 18 Sudoeste 0 -- -- 83
2019-01-20 06:00:00 7.2 7 Sudoeste 13 Sudoeste 0 -- -- 87
2019-01-20 05:00:00 7.3 4 Oeste 14 Sudoeste 0 -- -- 85
2019-01-20 04:00:00 7.1 4 Sudoeste 7 Oeste 0 -- -- 90
2019-01-20 03:00:00 7.2 4 Sudoeste 11 Sudoeste 0 -- -- 89
2019-01-20 02:00:00 7.8 6 Oeste 10 Sudoeste 0 -- -- 84
2019-01-20 01:00:00 8.3 0 Calma 6 Nordeste 0 -- -- 82
2019-01-20 00:00:00 8.9 2 Noroeste 14 Sudeste 0 -- -- 76
2019-01-19 23:00:00 9.6 4 Norte 15 Sur 0 -- -- 68
2019-01-19 22:00:00 9.7 7 Sur 15 Sur 0 -- -- 68
2019-01-19 21:00:00 9.9 3 Sur 9 Sudeste 0 -- -- 67
2019-01-19 20:00:00 10.1 0 Calma 11 Sur 0 -- -- 64
2019-01-19 19:00:00 10.3 2 Este 24 Sudoeste 0 -- -- 62
2019-01-19 18:00:00 10.8 6 Sudoeste 25 Sur 0 -- -- 59
2019-01-19 17:00:00 10.8 9 Sur 28 Sur 0 -- -- 59
2019-01-19 16:00:00 11.3 6 Sur 23 Sur 0 -- -- 62
2019-01-19 15:00:00 11.2 2 Sudeste 8 Sur 0 -- -- 67
2019-01-19 14:00:00 11.4 4 Sudeste 12 Sudeste 0 -- -- 70
2019-01-19 13:00:00 11.2 2 Nordeste 7 Oeste 0 -- -- 75
2019-01-19 12:00:00 9.8 3 Noroeste 6 Oeste 0 -- -- 78
2019-01-19 11:00:00 8.3 6 Oeste 10 Oeste 0 -- -- 84
2019-01-19 10:00:00 7.2 6 Oeste 12 Oeste 0 -- -- 88
2019-01-19 09:00:00 7.9 5 Oeste 15 Sudoeste 0 -- -- 81
2019-01-19 08:00:00 7.5 10 Sudoeste 16 Sudoeste 0.4 -- -- 86
2019-01-19 07:00:00 6.7 8 Oeste 17 Sudoeste 0 -- -- 90
2019-01-19 06:00:00 8 13 Sudoeste 23 Sudoeste 0 -- -- 81
2019-01-19 05:00:00 8 15 Sudoeste 26 Sudoeste 0.2 -- -- 85
2019-01-19 04:00:00 7.2 16 Sudoeste 28 Sudoeste 0.4 -- -- 91
2019-01-19 03:00:00 7 10 Sudoeste 21 Sudoeste 0.4 -- -- 90
2019-01-19 02:00:00 6.5 8 Oeste 21 Sudoeste 1 -- -- 90
2019-01-19 01:00:00 7.2 8 Sudoeste 18 Oeste 0 -- -- 80
2019-01-19 00:00:00 6.9 6 Oeste 10 Sudoeste 0 -- -- 76